Time,TemperatureF,DewpointF,PressureIn,WindDirection,WindDirectionDegrees,WindSpeedMPH,WindSpeedGustMPH,Humidity,HourlyPrecipIn,Conditions,Clouds,dailyrainin,SoftwareType,DateUTC
2013-04-08 00:03:00,50.8,49.1,29.77,SSW,194,15.0,15.0,94,0.00,,,0.00,Wunderground v.1.15,2013-04-08 07:03:00,
2013-04-08 00:08:00,50.9,49.2,29.76,SW,220,13.0,15.0,94,0.00,,,0.00,Wunderground v.1.15,2013-04-08 07:08:00,
2013-04-08 00:15:00,51.0,49.0,29.75,SSW,211,8.0,11.0,93,0.00,,,0.00,Wunderground v.1.15,2013-04-08 07:15:00,
2013-04-08 00:20:00,51.0,49.0,29.77,SW,236,3.0,8.0,93,0.00,,,0.00,Wunderground v.1.15,2013-04-08 07:20:00,
2013-04-08 00:25:00,51.1,49.1,29.78,WSW,241,6.0,9.0,93,0.00,,,0.00,Wunderground v.1.15,2013-04-08 07:25:00,
2013-04-08 00:31:00,51.1,48.9,29.78,SW,233,4.0,5.0,92,0.00,,,0.00,Wunderground v.1.15,2013-04-08 07:31:00,
2013-04-08 00:37:00,51.1,48.9,29.77,SW,234,4.0,5.0,92,0.00,,,0.00,Wunderground v.1.15,2013-04-08 07:37:00,
2013-04-08 00:42:00,51.0,48.5,29.77,West,261,1.0,6.0,91,0.00,,,0.00,Wunderground v.1.15,2013-04-08 07:42:00,
2013-04-08 00:47:00,51.0,48.2,29.77,NW,324,6.0,6.0,90,0.00,,,0.00,Wunderground v.1.15,2013-04-08 07:47:00,
2013-04-08 00:53:00,51.2,47.2,29.76,WSW,243,6.0,7.0,86,0.00,,,0.00,Wunderground v.1.15,2013-04-08 07:53:00,
2013-04-08 00:58:00,51.2,46.8,29.78,WSW,244,3.0,7.0,85,0.00,,,0.00,Wunderground v.1.15,2013-04-08 07:58:00,
2013-04-08 01:03:00,51.3,46.0,29.78,WNW,296,5.0,8.0,82,0.00,,,0.00,Wunderground v.1.15,2013-04-08 08:03:00,
2013-04-08 01:09:00,51.4,44.4,29.78,NW,304,3.0,15.0,77,0.00,,,0.00,Wunderground v.1.15,2013-04-08 08:09:00,
2013-04-08 01:15:00,51.5,43.8,29.77,West,265,8.0,14.0,75,0.00,,,0.00,Wunderground v.1.15,2013-04-08 08:15:00,
2013-04-08 01:20:00,51.4,43.0,29.78,West,272,9.0,9.0,73,0.00,,,0.00,Wunderground v.1.15,2013-04-08 08:20:00,
2013-04-08 01:27:00,51.2,42.8,29.77,NW,305,9.0,15.0,73,0.00,,,0.00,Wunderground v.1.15,2013-04-08 08:27:00,
2013-04-08 01:32:00,51.0,42.6,29.77,West,275,2.0,10.0,73,0.00,,,0.00,Wunderground v.1.15,2013-04-08 08:32:00,
2013-04-08 01:37:00,50.8,42.5,29.77,West,279,6.0,10.0,73,0.00,,,0.00,Wunderground v.1.15,2013-04-08 08:37:00,
2013-04-08 01:43:00,50.6,42.3,29.76,WSW,249,4.0,8.0,73,0.00,,,0.00,Wunderground v.1.15,2013-04-08 08:43:00,
2013-04-08 01:49:00,50.4,42.4,29.76,WNW,284,2.0,8.0,74,0.00,,,0.00,Wunderground v.1.15,2013-04-08 08:49:00,
2013-04-08 01:55:00,50.2,42.2,29.76,West,281,5.0,8.0,74,0.00,,,0.00,Wunderground v.1.15,2013-04-08 08:55:00,
2013-04-08 02:00:00,50.1,42.1,29.76,WNW,290,5.0,5.0,74,0.00,,,0.00,Wunderground v.1.15,2013-04-08 09:00:00,
2013-04-08 02:05:00,50.1,42.1,29.76,WNW,290,4.0,6.0,74,0.00,,,0.00,Wunderground v.1.15,2013-04-08 09:05:00,
2013-04-08 02:10:00,50.0,42.0,29.76,WNW,296,8.0,8.0,74,0.00,,,0.00,Wunderground v.1.15,2013-04-08 09:10:00,
2013-04-08 02:15:00,50.0,42.0,29.76,West,267,3.0,8.0,74,0.00,,,0.00,Wunderground v.1.15,2013-04-08 09:15:00,
2013-04-08 02:20:00,50.0,41.7,29.76,WNW,290,3.0,5.0,73,0.00,,,0.00,Wunderground v.1.15,2013-04-08 09:20:00,
2013-04-08 02:25:00,50.1,41.8,29.76,WSW,256,10.0,11.0,73,0.00,,,0.00,Wunderground v.1.15,2013-04-08 09:25:00,
2013-04-08 02:30:00,50.3,42.0,29.77,WNW,299,5.0,6.0,73,0.00,,,0.00,Wunderground v.1.15,2013-04-08 09:30:00,
2013-04-08 02:35:00,50.3,42.0,29.77,WNW,293,3.0,10.0,73,0.00,,,0.00,Wunderground v.1.15,2013-04-08 09:35:00,
2013-04-08 02:40:00,50.4,41.7,29.77,NW,304,5.0,5.0,72,0.00,,,0.00,Wunderground v.1.15,2013-04-08 09:40:00,
2013-04-08 02:45:00,50.5,41.8,29.77,West,281,7.0,15.0,72,0.00,,,0.00,Wunderground v.1.15,2013-04-08 09:45:00,
2013-04-08 02:50:00,50.5,41.8,29.76,West,275,5.0,7.0,72,0.00,,,0.00,Wunderground v.1.15,2013-04-08 09:50:00,
2013-04-08 02:55:00,50.5,41.8,29.76,NW,309,17.0,17.0,72,0.00,,,0.00,Wunderground v.1.15,2013-04-08 09:55:00,
2013-04-08 03:01:00,50.5,41.8,29.77,NW,319,7.0,12.0,72,0.00,,,0.00,Wunderground v.1.15,2013-04-08 10:01:00,
2013-04-08 03:05:00,50.4,42.1,29.77,WNW,286,3.0,14.0,73,0.00,,,0.00,Wunderground v.1.15,2013-04-08 10:05:00,
2013-04-08 03:10:00,50.4,42.1,29.77,NW,306,4.0,13.0,73,0.00,,,0.00,Wunderground v.1.15,2013-04-08 10:10:00,
2013-04-08 03:16:00,50.3,42.0,29.78,WNW,294,10.0,13.0,73,0.00,,,0.00,Wunderground v.1.15,2013-04-08 10:16:00,
2013-04-08 03:21:00,50.4,42.1,29.78,NW,305,6.0,14.0,73,0.00,,,0.00,Wunderground v.1.15,2013-04-08 10:21:00,
2013-04-08 03:26:00,50.6,41.9,29.78,WNW,288,7.0,14.0,72,0.00,,,0.00,Wunderground v.1.15,2013-04-08 10:26:00,
2013-04-08 03:31:00,50.7,42.0,29.78,NW,319,5.0,13.0,72,0.00,,,0.00,Wunderground v.1.15,2013-04-08 10:31:00,
2013-04-08 03:36:00,50.8,42.1,29.79,WNW,297,9.0,17.0,72,0.00,,,0.00,Wunderground v.1.15,2013-04-08 10:36:00,
2013-04-08 03:41:00,50.8,42.1,29.79,WNW,299,4.0,10.0,72,0.00,,,0.00,Wunderground v.1.15,2013-04-08 10:41:00,
2013-04-08 03:46:00,50.8,42.1,29.79,WNW,302,2.0,14.0,72,0.00,,,0.00,Wunderground v.1.15,2013-04-08 10:46:00,
2013-04-08 03:51:00,50.8,42.1,29.80,WNW,286,8.0,10.0,72,0.00,,,0.00,Wunderground v.1.15,2013-04-08 10:51:00,
2013-04-08 03:56:00,50.9,42.2,29.80,WNW,292,5.0,11.0,72,0.00,,,0.00,Wunderground v.1.15,2013-04-08 10:56:00,
2013-04-08 04:01:00,50.8,42.1,29.80,NW,309,5.0,10.0,72,0.00,,,0.00,Wunderground v.1.15,2013-04-08 11:01:00,
2013-04-08 04:06:00,50.8,42.5,29.80,WNW,287,7.0,10.0,73,0.00,,,0.00,Wunderground v.1.15,2013-04-08 11:06:00,
2013-04-08 04:11:00,50.8,42.5,29.80,WNW,300,2.0,5.0,73,0.00,,,0.00,Wunderground v.1.15,2013-04-08 11:11:00,
2013-04-08 04:16:00,50.7,42.4,29.81,NW,313,4.0,7.0,73,0.00,,,0.00,Wunderground v.1.15,2013-04-08 11:16:00,
2013-04-08 04:21:00,50.7,42.4,29.81,West,280,5.0,8.0,73,0.00,,,0.00,Wunderground v.1.15,2013-04-08 11:21:00,
2013-04-08 04:26:00,50.8,42.5,29.81,West,276,4.0,8.0,73,0.00,,,0.00,Wunderground v.1.15,2013-04-08 11:26:00,
2013-04-08 04:31:00,50.7,42.4,29.82,NW,304,2.0,4.0,73,0.00,,,0.00,Wunderground v.1.15,2013-04-08 11:31:00,
2013-04-08 04:37:00,50.7,42.4,29.82,NW,304,1.0,4.0,73,0.00,,,0.00,Wunderground v.1.15,2013-04-08 11:37:00,
2013-04-08 04:42:00,50.5,42.2,29.82,NW,304,1.0,4.0,73,0.00,,,0.00,Wunderground v.1.15,2013-04-08 11:42:00,
2013-04-08 04:47:00,50.4,42.1,29.82,NW,304,2.0,4.0,73,0.00,,,0.00,Wunderground v.1.15,2013-04-08 11:47:00,
2013-04-08 04:52:00,50.3,42.0,29.82,NW,304,2.0,5.0,73,0.00,,,0.00,Wunderground v.1.15,2013-04-08 11:52:00,
2013-04-08 04:57:00,50.1,41.8,29.82,WNW,303,3.0,6.0,73,0.00,,,0.00,Wunderground v.1.15,2013-04-08 11:57:00,
2013-04-08 05:02:00,50.0,41.7,29.82,WNW,302,2.0,3.0,73,0.00,,,0.00,Wunderground v.1.15,2013-04-08 12:02:00,
2013-04-08 05:07:00,49.9,41.6,29.82,WSW,240,6.0,7.0,73,0.00,,,0.00,Wunderground v.1.15,2013-04-08 12:07:00,
2013-04-08 05:12:00,49.8,41.5,29.82,West,265,1.0,6.0,73,0.00,,,0.00,Wunderground v.1.15,2013-04-08 12:12:00,
2013-04-08 05:17:00,49.8,41.1,29.82,West,267,2.0,7.0,72,0.00,,,0.00,Wunderground v.1.15,2013-04-08 12:17:00,
2013-04-08 05:23:00,49.8,40.8,29.83,West,278,6.0,7.0,71,0.00,,,0.00,Wunderground v.1.15,2013-04-08 12:23:00,
2013-04-08 05:28:00,49.9,40.5,29.82,WNW,289,7.0,8.0,70,0.00,,,0.00,Wunderground v.1.15,2013-04-08 12:28:00,
2013-04-08 05:33:00,49.9,40.1,29.83,WNW,302,4.0,10.0,69,0.00,,,0.00,Wunderground v.1.15,2013-04-08 12:33:00,
2013-04-08 05:38:00,50.0,39.8,29.83,WNW,290,3.0,10.0,68,0.00,,,0.00,Wunderground v.1.15,2013-04-08 12:38:00,
2013-04-08 05:43:00,50.1,39.6,29.83,NW,319,7.0,9.0,67,0.00,,,0.00,Wunderground v.1.15,2013-04-08 12:43:00,
2013-04-08 05:48:00,50.2,39.3,29.83,NW,319,8.0,10.0,66,0.00,,,0.00,Wunderground v.1.15,2013-04-08 12:48:00,
2013-04-08 05:53:00,50.2,39.3,29.83,NW,313,3.0,5.0,66,0.00,,,0.00,Wunderground v.1.15,2013-04-08 12:53:00,
2013-04-08 05:58:00,50.1,39.2,29.83,West,279,3.0,6.0,66,0.00,,,0.00,Wunderground v.1.15,2013-04-08 12:58:00,
2013-04-08 06:03:00,50.0,39.1,29.84,WNW,295,2.0,5.0,66,0.00,,,0.00,Wunderground v.1.15,2013-04-08 13:03:00,
2013-04-08 06:09:00,49.9,38.6,29.84,WNW,290,2.0,8.0,65,0.00,,,0.00,Wunderground v.1.15,2013-04-08 13:09:00,
2013-04-08 06:14:00,49.9,38.6,29.84,West,263,3.0,7.0,65,0.00,,,0.00,Wunderground v.1.15,2013-04-08 13:14:00,
2013-04-08 06:19:00,49.9,38.6,29.84,WNW,286,2.0,10.0,65,0.00,,,0.00,Wunderground v.1.15,2013-04-08 13:19:00,
2013-04-08 06:24:00,49.8,38.5,29.84,West,277,1.0,7.0,65,0.00,,,0.00,Wunderground v.1.15,2013-04-08 13:24:00,
2013-04-08 06:29:00,49.7,37.6,29.84,WNW,289,5.0,11.0,63,0.00,,,0.00,Wunderground v.1.15,2013-04-08 13:29:00,
2013-04-08 06:34:00,49.7,37.6,29.85,WNW,289,3.0,8.0,63,0.00,,,0.00,Wunderground v.1.15,2013-04-08 13:34:00,
2013-04-08 06:39:00,49.7,37.6,29.85,WSW,252,5.0,8.0,63,0.00,,,0.00,Wunderground v.1.15,2013-04-08 13:39:00,
2013-04-08 06:44:00,49.6,37.5,29.85,WSW,248,5.0,9.0,63,0.00,,,0.00,Wunderground v.1.15,2013-04-08 13:44:00,
2013-04-08 06:49:00,49.6,37.1,29.85,WNW,289,3.0,11.0,62,0.00,,,0.00,Wunderground v.1.15,2013-04-08 13:49:00,
2013-04-08 06:54:00,49.6,36.7,29.85,WNW,299,3.0,9.0,61,0.00,,,0.00,Wunderground v.1.15,2013-04-08 13:54:00,
2013-04-08 06:59:00,49.6,36.7,29.85,WNW,293,6.0,9.0,61,0.00,,,0.00,Wunderground v.1.15,2013-04-08 13:59:00,
2013-04-08 07:04:00,49.6,36.7,29.86,NW,319,6.0,11.0,61,0.00,,,0.00,Wunderground v.1.15,2013-04-08 14:04:00,
2013-04-08 07:09:00,49.7,36.8,29.86,NW,307,4.0,11.0,61,0.00,,,0.00,Wunderground v.1.15,2013-04-08 14:09:00,
2013-04-08 07:14:00,49.8,36.5,29.86,WNW,288,7.0,9.0,60,0.00,,,0.00,Wunderground v.1.15,2013-04-08 14:14:00,
2013-04-08 07:19:00,49.9,36.6,29.86,NW,308,9.0,12.0,60,0.00,,,0.00,Wunderground v.1.15,2013-04-08 14:19:00,
2013-04-08 07:24:00,50.1,36.7,29.87,NW,310,8.0,10.0,60,0.00,,,0.00,Wunderground v.1.15,2013-04-08 14:24:00,
2013-04-08 07:29:00,50.3,36.5,29.87,WNW,285,2.0,10.0,59,0.00,,,0.00,Wunderground v.1.15,2013-04-08 14:29:00,
2013-04-08 07:34:00,50.5,36.7,29.88,NW,313,9.0,16.0,59,0.00,,,0.00,Wunderground v.1.15,2013-04-08 14:34:00,
2013-04-08 07:39:00,50.6,36.8,29.88,WNW,290,13.0,19.0,59,0.00,,,0.00,Wunderground v.1.15,2013-04-08 14:39:00,
2013-04-08 07:44:00,50.7,36.9,29.89,WNW,299,9.0,13.0,59,0.00,,,0.00,Wunderground v.1.15,2013-04-08 14:44:00,
2013-04-08 07:49:00,50.8,37.0,29.89,West,277,7.0,16.0,59,0.00,,,0.00,Wunderground v.1.15,2013-04-08 14:49:00,
2013-04-08 07:54:00,50.9,37.1,29.89,WNW,299,10.0,10.0,59,0.00,,,0.00,Wunderground v.1.15,2013-04-08 14:54:00,
2013-04-08 07:59:00,51.2,36.0,29.89,NW,325,8.0,16.0,56,0.00,,,0.00,Wunderground v.1.15,2013-04-08 14:59:00,
2013-04-08 08:04:00,51.9,34.3,29.89,NW,319,9.0,17.0,51,0.00,,,0.00,Wunderground v.1.15,2013-04-08 15:04:00,
2013-04-08 08:10:00,53.0,32.8,29.89,WNW,294,5.0,9.0,46,0.00,,,0.00,Wunderground v.1.15,2013-04-08 15:10:00,
2013-04-08 08:15:00,53.8,32.4,29.89,NNW,341,9.0,21.0,44,0.00,,,0.00,Wunderground v.1.15,2013-04-08 15:15:00,
2013-04-08 08:20:00,54.4,31.2,29.89,NNW,338,12.0,12.0,41,0.00,,,0.00,Wunderground v.1.15,2013-04-08 15:20:00,
2013-04-08 08:25:00,54.8,30.9,29.90,NW,310,19.0,19.0,40,0.00,,,0.00,Wunderground v.1.15,2013-04-08 15:25:00,
2013-04-08 08:30:00,55.1,30.6,29.89,WNW,300,7.0,11.0,39,0.00,,,0.00,Wunderground v.1.15,2013-04-08 15:30:00,
2013-04-08 08:35:00,55.3,29.4,29.89,NNW,341,10.0,24.0,37,0.00,,,0.00,Wunderground v.1.15,2013-04-08 15:35:00,
2013-04-08 08:40:00,55.5,29.6,29.91,North,355,11.0,21.0,37,0.00,,,0.00,Wunderground v.1.15,2013-04-08 15:40:00,
2013-04-08 08:45:00,55.6,29.7,29.90,NNW,330,6.0,21.0,37,0.00,,,0.00,Wunderground v.1.15,2013-04-08 15:45:00,
2013-04-08 08:50:00,55.8,29.2,29.90,NNW,332,14.0,34.0,36,0.00,,,0.00,Wunderground v.1.15,2013-04-08 15:50:00,
2013-04-08 08:55:00,55.9,28.6,29.90,North,355,6.0,34.0,35,0.00,,,0.00,Wunderground v.1.15,2013-04-08 15:55:00,
2013-04-08 09:00:00,56.1,29.5,29.90,North,355,19.0,20.0,36,0.00,,,0.00,Wunderground v.1.15,2013-04-08 16:00:00,
2013-04-08 09:05:00,56.3,29.7,29.91,NNE,20,18.0,23.0,36,0.00,,,0.00,Wunderground v.1.15,2013-04-08 16:05:00,
2013-04-08 09:10:00,56.4,29.1,29.91,North,355,26.0,26.0,35,0.00,,,0.00,Wunderground v.1.15,2013-04-08 16:10:00,
2013-04-08 09:15:00,56.4,29.1,29.91,NNW,336,7.0,26.0,35,0.00,,,0.00,Wunderground v.1.15,2013-04-08 16:15:00,
2013-04-08 09:20:00,56.5,28.4,29.91,NNW,336,7.0,17.0,34,0.00,,,0.00,Wunderground v.1.15,2013-04-08 16:20:00,
2013-04-08 09:25:00,56.7,30.0,29.92,NNW,339,8.0,19.0,36,0.00,,,0.00,Wunderground v.1.15,2013-04-08 16:25:00,
2013-04-08 09:30:00,56.8,28.7,29.92,NNW,331,18.0,18.0,34,0.00,,,0.00,Wunderground v.1.15,2013-04-08 16:30:00,
2013-04-08 09:35:00,56.9,28.8,29.92,NW,326,12.0,27.0,34,0.00,,,0.00,Wunderground v.1.15,2013-04-08 16:35:00,
2013-04-08 09:40:00,57.0,29.6,29.91,North,355,9.0,18.0,35,0.00,,,0.00,Wunderground v.1.15,2013-04-08 16:40:00,
2013-04-08 09:45:00,56.9,28.1,29.92,NNW,328,29.0,31.0,33,0.00,,,0.00,Wunderground v.1.15,2013-04-08 16:45:00,
2013-04-08 09:50:00,57.0,28.9,29.92,NNE,12,9.0,15.0,34,0.00,,,0.00,Wunderground v.1.15,2013-04-08 16:50:00,
2013-04-08 09:55:00,56.9,28.8,29.92,NNW,344,7.0,29.0,34,0.00,,,0.00,Wunderground v.1.15,2013-04-08 16:55:00,
2013-04-08 10:00:00,57.3,29.1,29.92,NNE,14,13.0,18.0,34,0.00,,,0.00,Wunderground v.1.15,2013-04-08 17:00:00,
2013-04-08 10:05:00,57.6,28.7,29.92,North,10,18.0,25.0,33,0.00,,,0.00,Wunderground v.1.15,2013-04-08 17:05:00,
2013-04-08 10:10:00,57.6,29.4,29.92,NNW,337,14.0,22.0,34,0.00,,,0.00,Wunderground v.1.15,2013-04-08 17:10:00,
2013-04-08 10:15:00,57.7,28.8,29.93,North,355,10.0,29.0,33,0.00,,,0.00,Wunderground v.1.15,2013-04-08 17:15:00,
2013-04-08 10:20:00,58.0,29.0,29.93,NW,306,11.0,26.0,33,0.00,,,0.00,Wunderground v.1.15,2013-04-08 17:20:00,
2013-04-08 10:25:00,58.1,29.1,29.94,WNW,294,10.0,30.0,33,0.00,,,0.00,Wunderground v.1.15,2013-04-08 17:25:00,
2013-04-08 10:30:00,58.7,29.6,29.94,North,360,10.0,28.0,33,0.00,,,0.00,Wunderground v.1.15,2013-04-08 17:30:00,
2013-04-08 10:35:00,58.2,27.7,29.94,NNW,348,19.0,37.0,31,0.00,,,0.00,Wunderground v.1.15,2013-04-08 17:35:00,
2013-04-08 10:40:00,58.2,28.5,29.94,NNW,335,9.0,21.0,32,0.00,,,0.00,Wunderground v.1.15,2013-04-08 17:40:00,
2013-04-08 10:46:00,58.6,29.6,29.94,NNW,329,22.0,22.0,33,0.00,,,0.00,Wunderground v.1.15,2013-04-08 17:46:00,
2013-04-08 10:51:00,58.5,28.7,29.94,NNW,340,5.0,16.0,32,0.00,,,0.00,Wunderground v.1.15,2013-04-08 17:51:00,
2013-04-08 10:56:00,58.5,28.7,29.94,NNW,338,14.0,27.0,32,0.00,,,0.00,Wunderground v.1.15,2013-04-08 17:56:00,
2013-04-08 11:01:00,58.8,29.0,29.94,North,355,11.0,17.0,32,0.00,,,0.00,Wunderground v.1.15,2013-04-08 18:01:00,
2013-04-08 11:06:00,59.2,29.3,29.95,NNW,348,22.0,24.0,32,0.00,,,0.00,Wunderground v.1.15,2013-04-08 18:06:00,
2013-04-08 11:11:00,59.3,29.4,29.94,North,355,13.0,14.0,32,0.00,,,0.00,Wunderground v.1.15,2013-04-08 18:11:00,
2013-04-08 11:16:00,59.3,29.4,29.95,NNW,333,14.0,27.0,32,0.00,,,0.00,Wunderground v.1.15,2013-04-08 18:16:00,
2013-04-08 11:21:00,59.1,29.2,29.95,NNW,332,17.0,17.0,32,0.00,,,0.00,Wunderground v.1.15,2013-04-08 18:21:00,
2013-04-08 11:26:00,59.8,30.6,29.95,NNW,348,14.0,18.0,33,0.00,,,0.00,Wunderground v.1.15,2013-04-08 18:26:00,
2013-04-08 11:31:00,60.1,30.1,29.95,North,10,21.0,24.0,32,0.00,,,0.00,Wunderground v.1.15,2013-04-08 18:31:00,
2013-04-08 11:36:00,59.9,29.9,29.95,NW,316,12.0,27.0,32,0.00,,,0.00,Wunderground v.1.15,2013-04-08 18:36:00,
2013-04-08 11:41:00,59.7,29.0,29.95,NNW,338,34.0,34.0,31,0.00,,,0.00,Wunderground v.1.15,2013-04-08 18:41:00,
2013-04-08 11:46:00,59.9,29.2,29.95,NNW,327,18.0,34.0,31,0.00,,,0.00,Wunderground v.1.15,2013-04-08 18:46:00,
2013-04-08 11:51:00,60.2,30.2,29.95,NW,309,8.0,15.0,32,0.00,,,0.00,Wunderground v.1.15,2013-04-08 18:51:00,
2013-04-08 11:56:00,60.5,29.7,29.95,North,5,24.0,29.0,31,0.00,,,0.00,Wunderground v.1.15,2013-04-08 18:56:00,
2013-04-08 12:01:00,60.5,28.9,29.95,North,360,11.0,22.0,30,0.00,,,0.00,Wunderground v.1.15,2013-04-08 19:01:00,
2013-04-08 12:06:00,60.5,29.7,29.94,North,360,20.0,27.0,31,0.00,,,0.00,Wunderground v.1.15,2013-04-08 19:06:00,
2013-04-08 12:11:00,60.7,29.9,29.95,NW,317,10.0,16.0,31,0.00,,,0.00,Wunderground v.1.15,2013-04-08 19:11:00,
2013-04-08 12:16:00,61.0,30.1,29.95,NNW,334,8.0,25.0,31,0.00,,,0.00,Wunderground v.1.15,2013-04-08 19:16:00,
2013-04-08 12:21:00,61.4,29.7,29.95,North,355,29.0,29.0,30,0.00,,,0.00,Wunderground v.1.15,2013-04-08 19:21:00,
2013-04-08 12:26:00,61.5,29.7,29.95,NW,319,10.0,29.0,30,0.00,,,0.00,Wunderground v.1.15,2013-04-08 19:26:00,
2013-04-08 12:31:00,61.6,29.8,29.95,NNW,333,8.0,22.0,30,0.00,,,0.00,Wunderground v.1.15,2013-04-08 19:31:00,
2013-04-08 12:36:00,62.0,30.2,29.95,North,5,15.0,24.0,30,0.00,,,0.00,Wunderground v.1.15,2013-04-08 19:36:00,
2013-04-08 12:41:00,61.9,30.1,29.94,North,351,14.0,23.0,30,0.00,,,0.00,Wunderground v.1.15,2013-04-08 19:41:00,
2013-04-08 12:46:00,62.4,30.5,29.95,North,360,15.0,23.0,30,0.00,,,0.00,Wunderground v.1.15,2013-04-08 19:46:00,
2013-04-08 12:51:00,62.2,29.5,29.95,NNW,339,20.0,20.0,29,0.00,,,0.00,Wunderground v.1.15,2013-04-08 19:51:00,
2013-04-08 12:57:00,62.8,30.9,29.95,NW,323,9.0,25.0,30,0.00,,,0.00,Wunderground v.1.15,2013-04-08 19:57:00,
2013-04-08 13:02:00,62.9,30.1,29.95,NNW,343,13.0,20.0,29,0.00,,,0.00,Wunderground v.1.15,2013-04-08 20:02:00,
2013-04-08 13:07:00,63.1,29.4,29.95,North,355,5.0,23.0,28,0.00,,,0.00,Wunderground v.1.15,2013-04-08 20:07:00,
2013-04-08 13:12:00,63.8,31.7,29.95,North,355,18.0,21.0,30,0.00,,,0.00,Wunderground v.1.15,2013-04-08 20:12:00,
2013-04-08 13:17:00,63.6,29.9,29.95,NNE,24,17.0,22.0,28,0.00,,,0.00,Wunderground v.1.15,2013-04-08 20:17:00,
2013-04-08 13:22:00,63.4,29.7,29.94,NNW,330,8.0,21.0,28,0.00,,,0.00,Wunderground v.1.15,2013-04-08 20:22:00,
2013-04-08 13:27:00,64.3,29.6,29.94,NNE,12,5.0,21.0,27,0.00,,,0.00,Wunderground v.1.15,2013-04-08 20:27:00,
2013-04-08 13:32:00,64.1,29.4,29.94,North,355,6.0,22.0,27,0.00,,,0.00,Wunderground v.1.15,2013-04-08 20:32:00,
2013-04-08 13:37:00,63.8,30.0,29.93,NW,321,11.0,28.0,28,0.00,,,0.00,Wunderground v.1.15,2013-04-08 20:37:00,
2013-04-08 13:42:00,64.0,30.2,29.94,NNW,331,9.0,32.0,28,0.00,,,0.00,Wunderground v.1.15,2013-04-08 20:42:00,
2013-04-08 13:47:00,64.3,29.6,29.94,NNW,339,6.0,32.0,27,0.00,,,0.00,Wunderground v.1.15,2013-04-08 20:47:00,
2013-04-08 13:52:00,64.8,30.0,29.94,NNW,343,18.0,20.0,27,0.00,,,0.00,Wunderground v.1.15,2013-04-08 20:52:00,
2013-04-08 13:57:00,64.9,30.1,29.94,WNW,302,9.0,24.0,27,0.00,,,0.00,Wunderground v.1.15,2013-04-08 20:57:00,
2013-04-08 14:02:00,64.7,29.0,29.94,NNW,335,15.0,20.0,26,0.00,,,0.00,Wunderground v.1.15,2013-04-08 21:02:00,
2013-04-08 14:07:00,65.4,30.5,29.93,WNW,297,6.0,20.0,27,0.00,,,0.00,Wunderground v.1.15,2013-04-08 21:07:00,
2013-04-08 14:12:00,65.6,28.8,29.94,NNW,346,7.0,19.0,25,0.00,,,0.00,Wunderground v.1.15,2013-04-08 21:12:00,
2013-04-08 14:17:00,65.5,29.7,29.93,NNW,344,11.0,20.0,26,0.00,,,0.00,Wunderground v.1.15,2013-04-08 21:17:00,
2013-04-08 14:22:00,65.5,28.7,29.93,NW,309,4.0,20.0,25,0.00,,,0.00,Wunderground v.1.15,2013-04-08 21:22:00,
2013-04-08 14:27:00,65.4,29.6,29.93,WNW,292,7.0,21.0,26,0.00,,,0.00,Wunderground v.1.15,2013-04-08 21:27:00,
2013-04-08 14:32:00,66.1,30.2,29.93,NNW,329,10.0,22.0,26,0.00,,,0.00,Wunderground v.1.15,2013-04-08 21:32:00,
2013-04-08 14:37:00,66.2,29.3,29.93,North,355,12.0,23.0,25,0.00,,,0.00,Wunderground v.1.15,2013-04-08 21:37:00,
2013-04-08 14:42:00,65.9,28.1,29.93,NNE,19,14.0,22.0,24,0.00,,,0.00,Wunderground v.1.15,2013-04-08 21:42:00,
2013-04-08 14:47:00,66.2,30.3,29.92,NW,317,11.0,23.0,26,0.00,,,0.00,Wunderground v.1.15,2013-04-08 21:47:00,
2013-04-08 14:53:00,66.8,31.7,29.93,NNE,22,13.0,19.0,27,0.00,,,0.00,Wunderground v.1.15,2013-04-08 21:53:00,
2013-04-08 14:58:00,67.3,31.2,29.93,NNW,329,11.0,19.0,26,0.00,,,0.00,Wunderground v.1.15,2013-04-08 21:58:00,
2013-04-08 15:03:00,67.3,29.2,29.93,WNW,295,16.0,22.0,24,0.00,,,0.00,Wunderground v.1.15,2013-04-08 22:03:00,
2013-04-08 15:08:00,66.7,28.7,29.93,North,355,11.0,28.0,24,0.00,,,0.00,Wunderground v.1.15,2013-04-08 22:08:00,
2013-04-08 15:13:00,67.0,30.0,29.92,NW,319,13.0,13.0,25,0.00,,,0.00,Wunderground v.1.15,2013-04-08 22:13:00,
2013-04-08 15:18:00,67.2,29.2,29.92,NNW,329,9.0,21.0,24,0.00,,,0.00,Wunderground v.1.15,2013-04-08 22:18:00,
2013-04-08 15:23:00,67.4,29.3,29.92,NW,317,16.0,20.0,24,0.00,,,0.00,Wunderground v.1.15,2013-04-08 22:23:00,
2013-04-08 15:28:00,67.5,30.4,29.92,North,355,6.0,21.0,25,0.00,,,0.00,Wunderground v.1.15,2013-04-08 22:28:00,
2013-04-08 15:33:00,67.8,28.6,29.93,NNW,329,15.0,20.0,23,0.00,,,0.00,Wunderground v.1.15,2013-04-08 22:33:00,
2013-04-08 15:38:00,67.6,28.5,29.93,NW,320,11.0,20.0,23,0.00,,,0.00,Wunderground v.1.15,2013-04-08 22:38:00,
2013-04-08 15:43:00,67.5,28.4,29.93,North,350,13.0,20.0,23,0.00,,,0.00,Wunderground v.1.15,2013-04-08 22:43:00,
2013-04-08 15:48:00,67.3,27.1,29.92,NW,318,8.0,20.0,22,0.00,,,0.00,Wunderground v.1.15,2013-04-08 22:48:00,
2013-04-08 15:53:00,67.5,28.4,29.92,NW,304,4.0,18.0,23,0.00,,,0.00,Wunderground v.1.15,2013-04-08 22:53:00,
2013-04-08 15:58:00,67.7,28.5,29.92,NW,323,7.0,22.0,23,0.00,,,0.00,Wunderground v.1.15,2013-04-08 22:58:00,
2013-04-08 16:03:00,68.3,28.0,29.92,NNW,342,11.0,16.0,22,0.00,,,0.00,Wunderground v.1.15,2013-04-08 23:03:00,
2013-04-08 16:08:00,68.1,27.8,29.92,North,355,12.0,20.0,22,0.00,,,0.00,Wunderground v.1.15,2013-04-08 23:08:00,
2013-04-08 16:13:00,67.9,26.5,29.92,North,355,10.0,19.0,21,0.00,,,0.00,Wunderground v.1.15,2013-04-08 23:13:00,
2013-04-08 16:18:00,67.9,25.3,29.92,North,360,10.0,23.0,20,0.00,,,0.00,Wunderground v.1.15,2013-04-08 23:18:00,
2013-04-08 16:23:00,68.0,25.4,29.92,NW,313,5.0,16.0,20,0.00,,,0.00,Wunderground v.1.15,2013-04-08 23:23:00,
2013-04-08 16:28:00,67.9,24.1,29.91,NNW,329,14.0,29.0,19,0.00,,,0.00,Wunderground v.1.15,2013-04-08 23:28:00,
2013-04-08 16:33:00,67.8,25.2,29.92,North,355,10.0,20.0,20,0.00,,,0.00,Wunderground v.1.15,2013-04-08 23:33:00,
2013-04-08 16:38:00,68.1,25.5,29.91,North,350,13.0,22.0,20,0.00,,,0.00,Wunderground v.1.15,2013-04-08 23:38:00,
2013-04-08 16:43:00,68.0,25.4,29.92,North,355,14.0,22.0,20,0.00,,,0.00,Wunderground v.1.15,2013-04-08 23:43:00,
2013-04-08 16:48:00,68.1,25.5,29.92,NNW,348,19.0,22.0,20,0.00,,,0.00,Wunderground v.1.15,2013-04-08 23:48:00,
2013-04-08 16:53:00,68.2,24.3,29.92,NNW,340,17.0,21.0,19,0.00,,,0.00,Wunderground v.1.15,2013-04-08 23:53:00,
2013-04-08 16:58:00,68.1,24.2,29.92,NW,316,6.0,23.0,19,0.00,,,0.00,Wunderground v.1.15,2013-04-08 23:58:00,
2013-04-08 17:03:00,68.4,24.5,29.92,North,9,8.0,17.0,19,0.00,,,0.00,Wunderground v.1.15,2013-04-09 00:03:00,
2013-04-08 17:09:00,68.2,24.3,29.92,North,360,8.0,20.0,19,0.00,,,0.00,Wunderground v.1.15,2013-04-09 00:09:00,
2013-04-08 17:14:00,68.1,24.2,29.92,WNW,300,6.0,22.0,19,0.00,,,0.00,Wunderground v.1.15,2013-04-09 00:14:00,
2013-04-08 17:19:00,68.2,24.3,29.92,NNW,331,15.0,22.0,19,0.00,,,0.00,Wunderground v.1.15,2013-04-09 00:19:00,
2013-04-08 17:24:00,68.2,24.3,29.92,NNE,12,12.0,20.0,19,0.00,,,0.00,Wunderground v.1.15,2013-04-09 00:24:00,
2013-04-08 17:29:00,68.1,25.5,29.92,North,5,6.0,24.0,20,0.00,,,0.00,Wunderground v.1.15,2013-04-09 00:29:00,
2013-04-08 17:34:00,68.2,25.6,29.92,NNW,342,13.0,19.0,20,0.00,,,0.00,Wunderground v.1.15,2013-04-09 00:34:00,
2013-04-08 17:39:00,68.1,24.2,29.92,NNE,19,4.0,19.0,19,0.00,,,0.00,Wunderground v.1.15,2013-04-09 00:39:00,
2013-04-08 17:45:00,68.1,25.5,29.92,North,349,6.0,18.0,20,0.00,,,0.00,Wunderground v.1.15,2013-04-09 00:45:00,
2013-04-08 17:50:00,68.1,25.5,29.92,NNE,27,6.0,9.0,20,0.00,,,0.00,Wunderground v.1.15,2013-04-09 00:50:00,
2013-04-08 17:55:00,68.0,25.4,29.92,NNW,338,4.0,19.0,20,0.00,,,0.00,Wunderground v.1.15,2013-04-09 00:55:00,
2013-04-08 18:00:00,68.1,26.7,29.92,NNW,334,9.0,9.0,21,0.00,,,0.00,Wunderground v.1.15,2013-04-09 01:00:00,
2013-04-08 18:05:00,68.0,25.4,29.92,NNW,331,7.0,19.0,20,0.00,,,0.00,Wunderground v.1.15,2013-04-09 01:05:00,
2013-04-08 18:10:00,67.9,25.3,29.92,NNW,346,15.0,20.0,20,0.00,,,0.00,Wunderground v.1.15,2013-04-09 01:10:00,
2013-04-08 18:15:00,67.7,25.1,29.92,North,5,7.0,21.0,20,0.00,,,0.00,Wunderground v.1.15,2013-04-09 01:15:00,
2013-04-08 18:20:00,67.7,25.1,29.92,North,11,13.0,16.0,20,0.00,,,0.00,Wunderground v.1.15,2013-04-09 01:20:00,
2013-04-08 18:25:00,67.6,25.1,29.92,NNE,12,11.0,19.0,20,0.00,,,0.00,Wunderground v.1.15,2013-04-09 01:25:00,
2013-04-08 18:30:00,67.5,25.0,29.92,North,349,10.0,14.0,20,0.00,,,0.00,Wunderground v.1.15,2013-04-09 01:30:00,
2013-04-08 18:35:00,67.4,24.9,29.92,NNW,348,7.0,19.0,20,0.00,,,0.00,Wunderground v.1.15,2013-04-09 01:35:00,
2013-04-08 18:41:00,67.2,25.9,29.93,NW,322,11.0,14.0,21,0.00,,,0.00,Wunderground v.1.15,2013-04-09 01:41:00,
2013-04-08 18:46:00,67.1,25.8,29.93,North,9,9.0,18.0,21,0.00,,,0.00,Wunderground v.1.15,2013-04-09 01:46:00,
2013-04-08 18:51:00,67.0,26.9,29.93,North,360,11.0,11.0,22,0.00,,,0.00,Wunderground v.1.15,2013-04-09 01:51:00,
2013-04-08 18:56:00,66.8,26.7,29.93,NNW,346,13.0,17.0,22,0.00,,,0.00,Wunderground v.1.15,2013-04-09 01:56:00,
2013-04-08 19:01:00,66.6,26.5,29.93,North,355,12.0,13.0,22,0.00,,,0.00,Wunderground v.1.15,2013-04-09 02:01:00,
2013-04-08 19:07:00,66.4,27.4,29.93,NNW,344,2.0,14.0,23,0.00,,,0.00,Wunderground v.1.15,2013-04-09 02:07:00,
2013-04-08 19:12:00,66.2,27.3,29.93,North,5,2.0,13.0,23,0.00,,,0.00,Wunderground v.1.15,2013-04-09 02:12:00,
2013-04-08 19:17:00,66.0,27.1,29.94,NW,319,9.0,13.0,23,0.00,,,0.00,Wunderground v.1.15,2013-04-09 02:17:00,
2013-04-08 19:22:00,65.8,26.9,29.94,NNW,328,4.0,17.0,23,0.00,,,0.00,Wunderground v.1.15,2013-04-09 02:22:00,
2013-04-08 19:27:00,65.5,26.7,29.94,North,355,5.0,17.0,23,0.00,,,0.00,Wunderground v.1.15,2013-04-09 02:27:00,
2013-04-08 19:32:00,65.3,27.5,29.94,NNW,348,11.0,12.0,24,0.00,,,0.00,Wunderground v.1.15,2013-04-09 02:32:00,
2013-04-08 19:37:00,65.1,27.4,29.94,NW,311,2.0,14.0,24,0.00,,,0.00,Wunderground v.1.15,2013-04-09 02:37:00,
2013-04-08 19:42:00,64.8,27.1,29.94,North,355,8.0,10.0,24,0.00,,,0.00,Wunderground v.1.15,2013-04-09 02:42:00,
2013-04-08 19:47:00,64.6,27.9,29.94,NW,315,4.0,10.0,25,0.00,,,0.00,Wunderground v.1.15,2013-04-09 02:47:00,
2013-04-08 19:52:00,64.4,27.8,29.94,NNW,346,4.0,9.0,25,0.00,,,0.00,Wunderground v.1.15,2013-04-09 02:52:00,
2013-04-08 19:57:00,64.2,27.6,29.94,NW,313,6.0,12.0,25,0.00,,,0.00,Wunderground v.1.15,2013-04-09 02:57:00,
2013-04-08 20:02:00,64.1,27.5,29.95,NW,318,4.0,6.0,25,0.00,,,0.00,Wunderground v.1.15,2013-04-09 03:02:00,
2013-04-08 20:07:00,64.0,26.4,29.95,WNW,295,10.0,12.0,24,0.00,,,0.00,Wunderground v.1.15,2013-04-09 03:07:00,
2013-04-08 20:12:00,64.0,26.4,29.95,WNW,302,5.0,11.0,24,0.00,,,0.00,Wunderground v.1.15,2013-04-09 03:12:00,
2013-04-08 20:17:00,63.9,27.4,29.95,NW,316,11.0,11.0,25,0.00,,,0.00,Wunderground v.1.15,2013-04-09 03:17:00,
2013-04-08 20:22:00,63.9,26.4,29.95,NW,323,6.0,12.0,24,0.00,,,0.00,Wunderground v.1.15,2013-04-09 03:22:00,
2013-04-08 20:27:00,64.1,26.5,29.95,NW,313,8.0,15.0,24,0.00,,,0.00,Wunderground v.1.15,2013-04-09 03:27:00,
2013-04-08 20:33:00,64.2,26.6,29.96,NNW,339,8.0,10.0,24,0.00,,,0.00,Wunderground v.1.15,2013-04-09 03:33:00,
2013-04-08 20:38:00,64.2,26.6,29.96,NW,321,10.0,13.0,24,0.00,,,0.00,Wunderground v.1.15,2013-04-09 03:38:00,
2013-04-08 20:43:00,64.1,26.5,29.96,North,355,6.0,11.0,24,0.00,,,0.00,Wunderground v.1.15,2013-04-09 03:43:00,
2013-04-08 20:48:00,63.9,26.4,29.96,North,5,10.0,11.0,24,0.00,,,0.00,Wunderground v.1.15,2013-04-09 03:48:00,
2013-04-08 20:53:00,63.7,26.2,29.96,NW,319,8.0,9.0,24,0.00,,,0.00,Wunderground v.1.15,2013-04-09 03:53:00,
2013-04-08 20:58:00,63.5,27.0,29.97,North,5,3.0,9.0,25,0.00,,,0.00,Wunderground v.1.15,2013-04-09 03:58:00,
2013-04-08 21:00:00,63.4,26.9,29.97,NNW,327,9.0,9.0,25,0.00,,,0.00,Wunderground v.1.15,2013-04-09 04:00:00,
2013-04-08 21:05:00,63.3,26.8,29.97,WNW,292,9.0,13.0,25,0.00,,,0.00,Wunderground v.1.15,2013-04-09 04:05:00,
2013-04-08 21:10:00,63.2,26.8,29.97,North,5,6.0,9.0,25,0.00,,,0.00,Wunderground v.1.15,2013-04-09 04:10:00,
2013-04-08 21:15:00,63.1,27.6,29.97,NNW,347,6.0,11.0,26,0.00,,,0.00,Wunderground v.1.15,2013-04-09 04:15:00,
2013-04-08 21:20:00,63.0,27.5,29.98,NNW,340,6.0,8.0,26,0.00,,,0.00,Wunderground v.1.15,2013-04-09 04:20:00,
2013-04-08 21:25:00,62.9,28.4,29.98,North,355,5.0,14.0,27,0.00,,,0.00,Wunderground v.1.15,2013-04-09 04:25:00,
2013-04-08 21:30:00,62.9,28.4,29.98,North,349,6.0,13.0,27,0.00,,,0.00,Wunderground v.1.15,2013-04-09 04:30:00,
2013-04-08 21:35:00,63.0,28.5,29.98,North,355,6.0,15.0,27,0.00,,,0.00,Wunderground v.1.15,2013-04-09 04:35:00,
2013-04-08 21:40:00,62.8,29.2,29.99,NNW,347,9.0,9.0,28,0.00,,,0.00,Wunderground v.1.15,2013-04-09 04:40:00,
2013-04-08 21:45:00,62.6,29.0,29.98,NW,313,9.0,12.0,28,0.00,,,0.00,Wunderground v.1.15,2013-04-09 04:45:00,
2013-04-08 21:50:00,62.5,29.8,29.99,NW,312,3.0,8.0,29,0.00,,,0.00,Wunderground v.1.15,2013-04-09 04:50:00,
2013-04-08 21:55:00,62.5,29.8,29.99,NNW,333,4.0,13.0,29,0.00,,,0.00,Wunderground v.1.15,2013-04-09 04:55:00,
2013-04-08 22:00:00,62.3,30.4,29.99,NNE,15,8.0,9.0,30,0.00,,,0.00,Wunderground v.1.15,2013-04-09 05:00:00,
2013-04-08 22:05:00,62.2,30.4,29.99,NNW,347,6.0,11.0,30,0.00,,,0.00,Wunderground v.1.15,2013-04-09 05:05:00,
2013-04-08 22:10:00,62.0,31.0,29.99,NNW,334,4.0,6.0,31,0.00,,,0.00,Wunderground v.1.15,2013-04-09 05:10:00,
2013-04-08 22:15:00,61.9,30.9,30.00,NNW,329,8.0,15.0,31,0.00,,,0.00,Wunderground v.1.15,2013-04-09 05:15:00,
2013-04-08 22:20:00,61.9,30.9,30.00,NNW,336,11.0,11.0,31,0.00,,,0.00,Wunderground v.1.15,2013-04-09 05:20:00,
2013-04-08 22:25:00,61.8,30.8,30.00,North,355,5.0,13.0,31,0.00,,,0.00,Wunderground v.1.15,2013-04-09 05:25:00,
2013-04-08 22:30:00,61.8,30.8,30.00,NNW,329,11.0,15.0,31,0.00,,,0.00,Wunderground v.1.15,2013-04-09 05:30:00,
2013-04-08 22:35:00,61.8,30.8,30.00,NNW,339,7.0,18.0,31,0.00,,,0.00,Wunderground v.1.15,2013-04-09 05:35:00,
2013-04-08 22:40:00,61.8,30.8,30.00,North,355,8.0,19.0,31,0.00,,,0.00,Wunderground v.1.15,2013-04-09 05:40:00,
2013-04-08 22:45:00,61.7,31.5,30.00,North,350,4.0,19.0,32,0.00,,,0.00,Wunderground v.1.15,2013-04-09 05:45:00,
2013-04-08 22:50:00,61.5,31.3,30.01,WNW,298,7.0,11.0,32,0.00,,,0.00,Wunderground v.1.15,2013-04-09 05:50:00,
2013-04-08 22:56:00,61.4,31.3,30.01,NNW,340,10.0,18.0,32,0.00,,,0.00,Wunderground v.1.15,2013-04-09 05:56:00,
2013-04-08 23:01:00,61.3,31.2,30.01,NNW,340,5.0,14.0,32,0.00,,,0.00,Wunderground v.1.15,2013-04-09 06:01:00,
2013-04-08 23:06:00,61.3,31.2,30.01,NW,326,10.0,15.0,32,0.00,,,0.00,Wunderground v.1.15,2013-04-09 06:06:00,
2013-04-08 23:12:00,61.2,31.1,30.01,North,355,6.0,12.0,32,0.00,,,0.00,Wunderground v.1.15,2013-04-09 06:12:00,
2013-04-08 23:17:00,61.1,31.0,30.01,NNW,340,4.0,15.0,32,0.00,,,0.00,Wunderground v.1.15,2013-04-09 06:17:00,
2013-04-08 23:22:00,61.0,31.7,30.01,NNW,327,6.0,16.0,33,0.00,,,0.00,Wunderground v.1.15,2013-04-09 06:22:00,
2013-04-08 23:27:00,60.9,31.6,30.02,NE,38,5.0,17.0,33,0.00,,,0.00,Wunderground v.1.15,2013-04-09 06:27:00,
2013-04-08 23:32:00,60.8,31.5,30.02,North,5,6.0,19.0,33,0.00,,,0.00,Wunderground v.1.15,2013-04-09 06:32:00,
2013-04-08 23:37:00,60.7,30.6,30.02,NNW,348,11.0,19.0,32,0.00,,,0.00,Wunderground v.1.15,2013-04-09 06:37:00,
2013-04-08 23:42:00,60.6,31.3,30.02,NW,313,8.0,13.0,33,0.00,,,0.00,Wunderground v.1.15,2013-04-09 06:42:00,
2013-04-08 23:47:00,60.4,31.1,30.02,NNW,344,8.0,13.0,33,0.00,,,0.00,Wunderground v.1.15,2013-04-09 06:47:00,
2013-04-08 23:52:00,60.3,31.0,30.02,NW,309,8.0,12.0,33,0.00,,,0.00,Wunderground v.1.15,2013-04-09 06:52:00,
2013-04-08 23:57:00,60.2,31.0,30.02,NNW,339,7.0,14.0,33,0.00,,,0.00,Wunderground v.1.15,2013-04-09 06:57:00,